Time;durP1;ratioP1;P1;durP2;ratioP2;P2;SDS_P1;SDS_P2;PMS_P1;PMS_P2;Temp;Humidity;BMP_temperature;BMP_pressure;BME280_temperature;BME280_humidity;BME280_pressure;Samples;Min_cycle;Max_cycle;Signal;HPM_P1;HPM_P2
2022/04/19 00:01:58;;;;;;;3.17;1.60;;;;;;;;;;10399027;28;20045;-72
2022/04/19 00:07:02;;;;;;;3.70;2.00;;;;;;;;;;10399444;28;20065;-71
2022/04/19 00:12:08;;;;;;;1.80;0.90;;;;;;;;;;10399206;28;20045;-72
2022/04/19 00:17:11;;;;;;;1.98;1.35;;;;;;;;;;10382025;28;20423;-72
2022/04/19 00:22:14;;;;;;;1.65;1.02;;;;;;;;;;10398321;28;20044;-71
2022/04/19 00:27:18;;;;;;;4.38;1.88;;;;;;;;;;10398635;28;20049;-72
2022/04/19 00:32:21;;;;;;;2.13;1.27;;;;;;;;;;10386823;28;20136;-72
2022/04/19 00:37:24;;;;;;;1.42;0.85;;;;;;;;;;10398337;28;20041;-73
2022/04/19 00:42:28;;;;;;;3.70;1.67;;;;;;;;;;10398153;28;20046;-72
2022/04/19 00:47:33;;;;;;;5.20;2.00;;;;;;;;;;10402381;28;20037;-72
2022/04/19 00:52:37;;;;;;;4.50;1.35;;;;;;;;;;10405811;28;20064;-72
2022/04/19 00:57:42;;;;;;;1.52;1.10;;;;;;;;;;10404863;28;20033;-71
2022/04/19 01:02:44;;;;;;;2.63;1.60;;;;;;;;;;10403418;28;20046;-71
2022/04/19 01:07:47;;;;;;;3.47;1.52;;;;;;;;;;10390554;28;20063;-72
2022/04/19 01:18:20;;;;;;;2.65;1.67;;;;;;;;;;10405527;28;20068;-71
2022/04/19 01:23:26;;;;;;;2.03;1.52;;;;;;;;;;10404022;28;20048;-72
2022/04/19 01:28:28;;;;;;;3.35;1.65;;;;;;;;;;10405002;28;20033;-72
2022/04/19 01:33:31;;;;;;;5.20;1.75;;;;;;;;;;10403673;28;20041;-73
2022/04/19 01:38:56;;;;;;;1.93;1.50;;;;;;;;;;10405385;28;20052;-69
2022/04/19 01:43:59;;;;;;;;;;;;;;;;;;10362053;28;20316;-70
2022/04/19 01:49:03;;;;;;;3.03;1.55;;;;;;;;;;10360692;28;19975;-69
2022/04/19 01:54:06;;;;;;;;;;;;;;;;;;10365174;28;20096;-70
2022/04/19 01:59:08;;;;;;;1.45;0.82;;;;;;;;;;10365538;28;19975;-69
2022/04/19 02:04:13;;;;;;;1.08;0.85;;;;;;;;;;10364818;28;20510;-69
2022/04/19 02:09:15;;;;;;;0.73;0.65;;;;;;;;;;10365814;28;20129;-69
2022/04/19 02:14:18;;;;;;;2.38;1.73;;;;;;;;;;10387884;28;20068;-69
2022/04/19 02:19:22;;;;;;;2.75;1.30;;;;;;;;;;10385522;28;20041;-69
2022/04/19 02:24:25;;;;;;;1.80;1.02;;;;;;;;;;10386898;28;20034;-69
2022/04/19 02:29:28;;;;;;;1.35;1.10;;;;;;;;;;10369963;28;20045;-69
2022/04/19 02:34:33;;;;;;;3.53;1.70;;;;;;;;;;10368943;28;20034;-69
2022/04/19 02:39:37;;;;;;;3.28;1.50;;;;;;;;;;10370740;28;20127;-69
2022/04/19 02:44:39;;;;;;;3.90;1.60;;;;;;;;;;10371833;28;20080;-69
2022/04/19 02:49:45;;;;;;;4.45;0.90;;;;;;;;;;10371275;28;20081;-70
2022/04/19 02:54:48;;;;;;;2.20;0.95;;;;;;;;;;10364490;28;20054;-69
2022/04/19 02:59:51;;;;;;;3.47;1.65;;;;;;;;;;10378209;28;20524;-68
2022/04/19 03:04:55;;;;;;;2.23;1.00;;;;;;;;;;10363141;28;20487;-67
2022/04/19 03:09:58;;;;;;;2.53;1.50;;;;;;;;;;10360210;28;20053;-69
2022/04/19 03:15:01;;;;;;;2.65;1.60;;;;;;;;;;10363621;28;20060;-69
2022/04/19 03:20:09;;;;;;;1.73;1.40;;;;;;;;;;10361363;28;20034;-69
2022/04/19 03:30:47;;;;;;;;;;;;;;;;;;10275240;28;20116;-68
2022/04/19 03:35:57;;;;;;;2.03;1.48;;;;;;;;;;10334804;28;20428;-68
2022/04/19 03:41:00;;;;;;;2.55;1.35;;;;;;;;;;10377607;28;20069;-71
2022/04/19 03:46:02;;;;;;;3.53;1.58;;;;;;;;;;10361767;28;20506;-69
2022/04/19 03:51:07;;;;;;;3.85;1.30;;;;;;;;;;10362121;28;20084;-68
2022/04/19 03:56:09;;;;;;;;;;;;;;;;;;10376844;28;20041;-69
2022/04/19 04:01:13;;;;;;;0.38;0.38;;;;;;;;;;10359508;28;19926;-69
2022/04/19 04:06:19;;;;;;;3.90;1.60;;;;;;;;;;10361988;28;20099;-69
2022/04/19 04:11:22;;;;;;;1.77;1.20;;;;;;;;;;10362912;28;20088;-69
2022/04/19 04:16:25;;;;;;;3.65;1.80;;;;;;;;;;10361569;28;20117;-68
2022/04/19 04:21:31;;;;;;;2.67;1.48;;;;;;;;;;10363042;28;20046;-68
2022/04/19 04:26:34;;;;;;;1.75;0.75;;;;;;;;;;10371071;28;20482;-69
2022/04/19 04:31:39;;;;;;;4.07;1.58;;;;;;;;;;10382465;28;20034;-68
2022/04/19 04:36:43;;;;;;;3.25;1.75;;;;;;;;;;10367951;28;20034;-68
2022/04/19 04:41:46;;;;;;;4.45;1.77;;;;;;;;;;10367125;28;20042;-71
2022/04/19 04:52:12;;;;;;;8.95;2.30;;;;;;;;;;10367383;28;20096;-70
2022/04/19 04:57:15;;;;;;;6.45;2.08;;;;;;;;;;10367789;28;20046;-69
2022/04/19 05:02:19;;;;;;;4.67;1.90;;;;;;;;;;10365927;28;20128;-70
2022/04/19 05:07:23;;;;;;;4.00;2.08;;;;;;;;;;10368371;28;20329;-69
2022/04/19 05:12:29;;;;;;;2.90;1.85;;;;;;;;;;10382986;28;20045;-69
2022/04/19 05:17:33;;;;;;;3.75;1.70;;;;;;;;;;10368380;28;20030;-70
2022/04/19 05:22:37;;;;;;;3.58;1.95;;;;;;;;;;10382286;28;20464;-69
2022/04/19 05:27:40;;;;;;;5.57;2.35;;;;;;;;;;10366503;28;20847;-69
2022/04/19 05:32:44;;;;;;;8.07;2.15;;;;;;;;;;10364592;28;20541;-69
2022/04/19 05:37:48;;;;;;;7.93;2.38;;;;;;;;;;10365663;28;20034;-70
2022/04/19 05:42:51;;;;;;;6.47;1.80;;;;;;;;;;10381753;28;20711;-70
2022/04/19 05:47:54;;;;;;;4.07;2.00;;;;;;;;;;10367902;28;20133;-68
2022/04/19 05:52:59;;;;;;;5.13;2.28;;;;;;;;;;10364700;28;20104;-68
2022/04/19 05:58:02;;;;;;;4.45;2.38;;;;;;;;;;10362944;28;20092;-69
2022/04/19 06:08:27;;;;;;;5.88;2.35;;;;;;;;;;10381527;28;20541;-69
2022/04/19 06:13:30;;;;;;;;;;;;;;;;;;10382436;28;20107;-69
2022/04/19 06:18:33;;;;;;;2.25;1.33;;;;;;;;;;10365723;28;20008;-70
2022/04/19 06:23:38;;;;;;;0.97;0.90;;;;;;;;;;10365274;28;20084;-69
2022/04/19 06:28:41;;;;;;;2.70;1.75;;;;;;;;;;10363970;28;20037;-70
2022/04/19 06:33:44;;;;;;;3.37;1.70;;;;;;;;;;10366943;28;20048;-70
2022/04/19 06:38:49;;;;;;;4.63;1.93;;;;;;;;;;10363706;28;20136;-69
2022/04/19 06:43:58;;;;;;;6.72;2.80;;;;;;;;;;10366088;28;20120;-70
2022/04/19 06:49:01;;;;;;;7.13;2.88;;;;;;;;;;10361953;28;20495;-69
2022/04/19 06:54:06;;;;;;;3.67;2.27;;;;;;;;;;10364401;28;20042;-70
2022/04/19 06:59:09;;;;;;;6.10;2.22;;;;;;;;;;10362830;28;20057;-70
2022/04/19 07:04:13;;;;;;;4.10;2.60;;;;;;;;;;10364515;28;20048;-70
2022/04/19 07:09:18;;;;;;;5.83;2.27;;;;;;;;;;10363612;28;20092;-70
2022/04/19 07:14:21;;;;;;;6.25;2.70;;;;;;;;;;10365103;28;20063;-69
2022/04/19 07:19:24;;;;;;;5.00;2.72;;;;;;;;;;10362249;28;20046;-69
2022/04/19 07:29:50;;;;;;;7.03;3.35;;;;;;;;;;10376846;28;20045;-71
2022/04/19 07:34:54;;;;;;;4.40;2.55;;;;;;;;;;10363547;28;20051;-71
2022/04/19 07:39:58;;;;;;;5.32;2.65;;;;;;;;;;10382453;22;20045;-68
2022/04/19 07:45:02;;;;;;;5.75;2.67;;;;;;;;;;10482843;28;20062;-70
2022/04/19 07:50:05;;;;;;;8.30;2.47;;;;;;;;;;10472842;28;20036;-67
2022/04/19 07:55:10;;;;;;;6.40;3.00;;;;;;;;;;10487329;28;20044;-70
2022/04/19 08:00:15;;;;;;;8.27;2.88;;;;;;;;;;10481575;28;20037;-70
2022/04/19 08:05:19;;;;;;;5.85;3.50;;;;;;;;;;10462174;28;20135;-70
2022/04/19 08:10:24;;;;;;;41.55;7.22;;;;;;;;;;10477609;28;20036;-69
2022/04/19 08:15:28;;;;;;;19.08;5.15;;;;;;;;;;10466341;28;20041;-70
2022/04/19 08:20:31;;;;;;;21.13;5.10;;;;;;;;;;10478052;28;20053;-70
2022/04/19 08:25:36;;;;;;;24.98;4.75;;;;;;;;;;10478699;28;20131;-70
2022/04/19 08:30:39;;;;;;;16.77;3.72;;;;;;;;;;10466754;28;20025;-70
2022/04/19 08:35:42;;;;;;;11.50;5.60;;;;;;;;;;10480063;28;20036;-70
2022/04/19 08:40:48;;;;;;;10.45;4.70;;;;;;;;;;10461362;28;20053;-71
2022/04/19 08:45:51;;;;;;;7.15;4.22;;;;;;;;;;10472173;28;20101;-70
2022/04/19 08:50:55;;;;;;;6.45;4.18;;;;;;;;;;10454048;28;20439;-69
2022/04/19 09:01:22;;;;;;;11.90;5.15;;;;;;;;;;10476745;28;20135;-68
2022/04/19 09:06:45;;;;;;;7.68;4.65;;;;;;;;;;10476982;28;20106;-70
2022/04/19 09:11:51;;;;;;;9.40;5.20;;;;;;;;;;10488532;28;20041;-69
2022/04/19 09:17:02;;;;;;;8.38;4.50;;;;;;;;;;10492193;28;20161;-69
2022/04/19 09:22:08;;;;;;;8.85;4.97;;;;;;;;;;10480670;28;20032;-68
2022/04/19 09:27:13;;;;;;;10.57;5.20;;;;;;;;;;10494697;28;20507;-70
2022/04/19 09:32:17;;;;;;;9.55;4.40;;;;;;;;;;10472761;28;20053;-68
2022/04/19 09:37:21;;;;;;;;;;;;;;;;;;10467448;28;21082;-68
2022/04/19 09:42:27;;;;;;;11.27;4.47;;;;;;;;;;10465239;28;19943;-69
2022/04/19 09:47:30;;;;;;;11.50;4.68;;;;;;;;;;10472461;28;20059;-70
2022/04/19 09:52:33;;;;;;;;;;;;;;;;;;10485298;28;20036;-70
2022/04/19 09:57:39;;;;;;;9.82;4.75;;;;;;;;;;10506595;28;19920;-69
2022/04/19 10:08:19;;;;;;;9.85;4.30;;;;;;;;;;10470204;28;20380;-70
2022/04/19 10:13:24;;;;;;;8.90;4.45;;;;;;;;;;10482655;28;20128;-69
2022/04/19 10:18:28;;;;;;;10.18;4.47;;;;;;;;;;10475033;28;20036;-68
2022/04/19 10:23:34;;;;;;;44.13;21.02;;;;;;;;;;10478944;28;20044;-70
2022/04/19 10:28:39;;;;;;;9.80;4.78;;;;;;;;;;10489324;28;20078;-69
2022/04/19 10:33:48;;;;;;;11.23;5.25;;;;;;;;;;10475046;28;20040;-70
2022/04/19 10:39:09;;;;;;;60.92;7.90;;;;;;;;;;10471787;28;20500;-70
2022/04/19 10:44:36;;;;;;;12.35;6.43;;;;;;;;;;10478081;28;20044;-70
2022/04/19 10:49:52;;;;;;;7.55;4.63;;;;;;;;;;10446982;28;20124;-69
2022/04/19 10:55:01;;;;;;;8.57;4.85;;;;;;;;;;10471979;28;20510;-70
2022/04/19 11:00:19;;;;;;;9.63;5.43;;;;;;;;;;10483285;28;20032;-69
2022/04/19 11:05:36;;;;;;;7.82;4.57;;;;;;;;;;10459696;28;20117;-70
2022/04/19 11:10:39;;;;;;;9.38;5.03;;;;;;;;;;10465736;28;20037;-68
2022/04/19 11:15:43;;;;;;;7.53;5.15;;;;;;;;;;10482009;28;20436;-70
2022/04/19 11:20:48;;;;;;;7.30;4.35;;;;;;;;;;10463635;28;20044;-70
2022/04/19 11:25:51;;;;;;;10.10;5.20;;;;;;;;;;10470581;28;20070;-70
2022/04/19 11:31:09;;;;;;;7.32;4.70;;;;;;;;;;10478082;28;20040;-70
2022/04/19 11:36:16;;;;;;;7.03;4.97;;;;;;;;;;10479619;28;20538;-71
2022/04/19 11:46:46;;;;;;;7.40;4.90;;;;;;;;;;10486593;28;20045;-71
2022/04/19 11:51:52;;;;;;;6.35;4.88;;;;;;;;;;10464298;28;20468;-70
2022/04/19 11:56:57;;;;;;;7.47;4.97;;;;;;;;;;10471097;28;20032;-67
2022/04/19 12:02:03;;;;;;;8.23;4.95;;;;;;;;;;10466308;28;20086;-69
2022/04/19 12:07:08;;;;;;;7.28;4.78;;;;;;;;;;10466039;28;20432;-70
2022/04/19 12:12:13;;;;;;;8.77;5.28;;;;;;;;;;10466516;28;20102;-70
2022/04/19 12:17:19;;;;;;;5.97;4.63;;;;;;;;;;10487286;28;20102;-70
2022/04/19 12:22:25;;;;;;;6.32;4.70;;;;;;;;;;10467044;28;20056;-70
2022/04/19 12:27:31;;;;;;;7.88;4.10;;;;;;;;;;10469315;28;20586;-70
2022/04/19 12:32:51;;;;;;;7.13;4.43;;;;;;;;;;10459696;28;20044;-70
2022/04/19 12:38:09;;;;;;;8.20;4.80;;;;;;;;;;10472877;28;20028;-70
2022/04/19 12:43:14;;;;;;;7.07;4.35;;;;;;;;;;10487718;28;20052;-70
2022/04/19 12:48:20;;;;;;;6.45;3.78;;;;;;;;;;10481550;28;20127;-70
2022/04/19 12:53:26;;;;;;;7.03;3.65;;;;;;;;;;10489025;28;20040;-71
2022/04/19 12:58:29;;;;;;;6.43;3.97;;;;;;;;;;10474202;28;20585;-68
2022/04/19 13:03:32;;;;;;;6.13;4.07;;;;;;;;;;10470032;28;20486;-69
2022/04/19 13:13:57;;;;;;;7.40;3.47;;;;;;;;;;10485291;28;20047;-71
2022/04/19 13:19:00;;;;;;;5.80;3.47;;;;;;;;;;10486190;28;20535;-69
2022/04/19 13:24:04;;;;;;;12.05;7.38;;;;;;;;;;10493077;28;20078;-71
2022/04/19 13:29:07;;;;;;;4.80;3.42;;;;;;;;;;10474483;28;20119;-71
2022/04/19 13:34:10;;;;;;;3.75;3.00;;;;;;;;;;10459390;28;20048;-70
2022/04/19 13:39:14;;;;;;;4.95;3.10;;;;;;;;;;10480415;28;20056;-70
2022/04/19 13:44:17;;;;;;;5.78;3.05;;;;;;;;;;10478383;22;20261;-70
2022/04/19 13:49:20;;;;;;;4.38;2.47;;;;;;;;;;10470540;28;20032;-70
2022/04/19 13:54:24;;;;;;;4.18;2.45;;;;;;;;;;10450044;28;20695;-70
2022/04/19 13:59:27;;;;;;;3.67;2.30;;;;;;;;;;10443669;28;20032;-70
2022/04/19 14:04:30;;;;;;;;;;;;;;;;;;10444556;28;20052;-71
2022/04/19 14:09:34;;;;;;;5.88;2.42;;;;;;;;;;10446951;28;20288;-71
2022/04/19 14:14:37;;;;;;;2.30;2.00;;;;;;;;;;10444967;28;20048;-70
2022/04/19 14:19:40;;;;;;;2.38;1.70;;;;;;;;;;10427210;28;20317;-69
2022/04/19 14:24:45;;;;;;;5.47;3.28;;;;;;;;;;10444006;28;20055;-71
2022/04/19 14:35:10;;;;;;;4.07;2.35;;;;;;;;;;10444570;28;20146;-71
2022/04/19 14:40:12;;;;;;;;;;;;;;;;;;10441677;28;20075;-70
2022/04/19 14:45:18;;;;;;;6.68;1.80;;;;;;;;;;10443827;28;19963;-72
2022/04/19 14:50:22;;;;;;;4.55;1.70;;;;;;;;;;10442230;28;20090;-71
2022/04/19 14:55:25;;;;;;;;;;;;;;;;;;10444841;28;20041;-71
2022/04/19 15:00:29;;;;;;;5.07;2.10;;;;;;;;;;10424346;28;20300;-70
2022/04/19 15:05:33;;;;;;;5.72;1.95;;;;;;;;;;10444206;28;20043;-71
2022/04/19 15:10:37;;;;;;;3.28;2.00;;;;;;;;;;10426014;28;20082;-70
2022/04/19 15:15:50;;;;;;;3.60;2.00;;;;;;;;;;10444829;28;20154;-72
2022/04/19 15:20:53;;;;;;;3.25;1.88;;;;;;;;;;10427347;28;20040;-70
2022/04/19 15:25:56;;;;;;;4.15;1.65;;;;;;;;;;10445094;28;20512;-71
2022/04/19 15:31:01;;;;;;;2.25;1.40;;;;;;;;;;10425176;28;20115;-70
2022/04/19 15:36:04;;;;;;;5.93;2.70;;;;;;;;;;10442260;28;20086;-69
2022/04/19 15:41:08;;;;;;;2.55;1.40;;;;;;;;;;10429744;28;20048;-70
2022/04/19 15:46:14;;;;;;;4.47;1.73;;;;;;;;;;10457047;28;20703;-71
2022/04/19 15:51:17;;;;;;;2.55;1.52;;;;;;;;;;10440038;28;20369;-70
2022/04/19 15:56:21;;;;;;;4.30;1.80;;;;;;;;;;10440696;28;20071;-71
2022/04/19 16:01:25;;;;;;;2.63;1.30;;;;;;;;;;10453911;28;20029;-72
2022/04/19 16:06:28;;;;;;;3.90;1.40;;;;;;;;;;10420896;28;20064;-72
2022/04/19 16:11:32;;;;;;;4.13;1.70;;;;;;;;;;10441870;28;20491;-71
2022/04/19 16:27:21;;;;;;;1.90;1.60;;;;;;;;;;10423422;28;20076;-70
2022/04/19 16:32:26;;;;;;;3.15;1.63;;;;;;;;;;10419554;28;20037;-70
2022/04/19 16:37:29;;;;;;;2.78;1.60;;;;;;;;;;10423151;28;20061;-70
2022/04/19 16:42:32;;;;;;;3.75;1.58;;;;;;;;;;10437567;28;20090;-70
2022/04/19 16:47:37;;;;;;;2.83;1.60;;;;;;;;;;10423913;28;20072;-70
2022/04/19 16:52:42;;;;;;;2.95;1.40;;;;;;;;;;10419551;28;20041;-70
2022/04/19 16:57:45;;;;;;;2.17;1.40;;;;;;;;;;10423639;28;20106;-70
2022/04/19 17:02:49;;;;;;;2.90;1.70;;;;;;;;;;10421376;28;20045;-70
2022/04/19 17:07:53;;;;;;;2.08;1.40;;;;;;;;;;10440551;28;20072;-70
2022/04/19 17:12:57;;;;;;;2.25;1.23;;;;;;;;;;10441744;28;20452;-71
2022/04/19 17:18:02;;;;;;;2.65;1.50;;;;;;;;;;10422435;28;20067;-71
2022/04/19 17:23:05;;;;;;;2.28;1.60;;;;;;;;;;10423101;28;20041;-70
2022/04/19 17:28:09;;;;;;;5.50;1.60;;;;;;;;;;10423041;28;20045;-70
2022/04/19 17:33:13;;;;;;;3.15;1.55;;;;;;;;;;10427855;28;20460;-70
2022/04/19 17:38:17;;;;;;;3.75;2.28;;;;;;;;;;10430556;28;20060;-70
2022/04/19 17:43:22;;;;;;;3.38;2.20;;;;;;;;;;10447396;28;20460;-70
2022/04/19 17:48:26;;;;;;;4.93;2.83;;;;;;;;;;10429380;28;20087;-70
2022/04/19 17:58:51;;;;;;;4.75;2.55;;;;;;;;;;10444485;28;20289;-71
2022/04/19 18:03:57;;;;;;;6.80;3.22;;;;;;;;;;10448292;28;20090;-70
2022/04/19 18:09:00;;;;;;;5.13;2.83;;;;;;;;;;10430151;28;20064;-70
2022/04/19 18:14:03;;;;;;;8.52;3.75;;;;;;;;;;10448274;28;20063;-70
2022/04/19 18:19:07;;;;;;;3.50;2.00;;;;;;;;;;10445630;28;20029;-70
2022/04/19 18:29:31;;;;;;;10.25;3.40;;;;;;;;;;10428185;28;20186;-70
2022/04/19 18:34:35;;;;;;;6.72;3.10;;;;;;;;;;10445992;28;20128;-69
2022/04/19 18:39:37;;;;;;;3.90;2.15;;;;;;;;;;10443676;28;20033;-69
2022/04/19 18:44:40;;;;;;;5.80;3.45;;;;;;;;;;10427424;28;20041;-70
2022/04/19 18:49:45;;;;;;;8.38;3.53;;;;;;;;;;10439893;28;20033;-70
2022/04/19 18:54:48;;;;;;;;;;;;;;;;;;10427857;28;20493;-70
2022/04/19 18:59:50;;;;;;;5.95;3.25;;;;;;;;;;10422697;28;19928;-69
2022/04/19 19:04:55;;;;;;;4.65;2.15;;;;;;;;;;10458802;28;20041;-69
2022/04/19 19:09:57;;;;;;;;;;;;;;;;;;10448726;28;20041;-70
2022/04/19 19:15:00;;;;;;;3.97;2.47;;;;;;;;;;10426161;28;19921;-69
2022/04/19 19:20:04;;;;;;;5.78;2.72;;;;;;;;;;10444025;28;20440;-70
2022/04/19 19:25:08;;;;;;;3.40;2.67;;;;;;;;;;10443175;28;20152;-70
2022/04/19 19:30:14;;;;;;;3.72;2.75;;;;;;;;;;10442894;28;20033;-68
2022/04/19 19:35:18;;;;;;;6.47;2.80;;;;;;;;;;10442055;28;20098;-70
2022/04/19 19:40:25;;;;;;;6.43;2.95;;;;;;;;;;10444571;28;20080;-70
2022/04/19 19:45:28;;;;;;;3.85;2.45;;;;;;;;;;10445460;22;20113;-69
2022/04/19 19:50:33;;;;;;;7.93;4.50;;;;;;;;;;10438149;28;20068;-70
2022/04/19 19:55:35;;;;;;;;;;;;;;;;;;10424044;28;20569;-69
2022/04/19 20:00:38;;;;;;;3.75;2.08;;;;;;;;;;10442893;28;19971;-67
2022/04/19 20:05:43;;;;;;;5.32;2.33;;;;;;;;;;10445200;28;20261;-69
2022/04/19 20:10:47;;;;;;;7.05;3.38;;;;;;;;;;10441477;28;20079;-68
2022/04/19 20:15:51;;;;;;;6.13;2.40;;;;;;;;;;10428306;28;20033;-69
2022/04/19 20:20:55;;;;;;;2.70;2.00;;;;;;;;;;10420609;28;20409;-69
2022/04/19 20:25:59;;;;;;;4.43;2.42;;;;;;;;;;10431002;28;20114;-70
2022/04/19 20:31:02;;;;;;;7.30;4.67;;;;;;;;;;10439383;28;20057;-69
2022/04/19 20:36:07;;;;;;;6.13;4.53;;;;;;;;;;10432034;28;20056;-70
2022/04/19 20:41:10;;;;;;;4.40;2.28;;;;;;;;;;10449411;28;21751;-70
2022/04/19 20:46:13;;;;;;;4.05;2.33;;;;;;;;;;10444954;28;20570;-69
2022/04/19 20:51:18;;;;;;;2.92;2.17;;;;;;;;;;10427439;28;20044;-68
2022/04/19 20:56:21;;;;;;;4.28;2.70;;;;;;;;;;10444436;28;20451;-69
2022/04/19 21:01:25;;;;;;;2.28;1.23;;;;;;;;;;10437996;28;20032;-69
2022/04/19 21:06:31;;;;;;;5.18;2.85;;;;;;;;;;10451804;28;20036;-69
2022/04/19 21:11:35;;;;;;;3.83;1.73;;;;;;;;;;10426653;28;20041;-70
2022/04/19 21:16:40;;;;;;;7.07;3.38;;;;;;;;;;10434351;28;20095;-69
2022/04/19 21:21:44;;;;;;;3.25;1.67;;;;;;;;;;10428780;28;20033;-68
2022/04/19 21:26:48;;;;;;;3.58;1.65;;;;;;;;;;10446742;28;20061;-68
2022/04/19 21:31:51;;;;;;;3.13;2.00;;;;;;;;;;10448048;28;20033;-69
2022/04/19 21:36:55;;;;;;;3.33;2.15;;;;;;;;;;10428412;28;20033;-69
2022/04/19 21:41:59;;;;;;;4.95;2.70;;;;;;;;;;10427690;28;20033;-69
2022/04/19 21:47:03;;;;;;;4.68;2.15;;;;;;;;;;10443182;28;20091;-69
2022/04/19 21:52:07;;;;;;;7.07;2.55;;;;;;;;;;10427035;28;20132;-69
2022/04/19 21:57:11;;;;;;;4.03;1.50;;;;;;;;;;10447210;28;20051;-68
2022/04/19 22:02:14;;;;;;;4.97;2.80;;;;;;;;;;10445333;28;20051;-68
2022/04/19 22:07:19;;;;;;;6.38;3.22;;;;;;;;;;10426770;28;20056;-69
2022/04/19 22:12:22;;;;;;;;;;;;;;;;;;10430126;28;20489;-68
2022/04/19 22:17:25;;;;;;;4.93;2.90;;;;;;;;;;10429852;28;20183;-69
2022/04/19 22:22:29;;;;;;;6.82;2.30;;;;;;;;;;10445658;28;20087;-70
2022/04/19 22:27:33;;;;;;;6.80;2.88;;;;;;;;;;10446446;28;20087;-69
2022/04/19 22:32:36;;;;;;;5.47;3.07;;;;;;;;;;10445244;28;20430;-69
2022/04/19 22:37:41;;;;;;;4.13;2.50;;;;;;;;;;10447401;28;20570;-69
2022/04/19 22:42:44;;;;;;;7.17;3.20;;;;;;;;;;10444304;28;20519;-69
2022/04/19 22:47:47;;;;;;;6.37;3.47;;;;;;;;;;10440407;28;20048;-69
2022/04/19 22:52:52;;;;;;;3.07;1.90;;;;;;;;;;10440149;28;20033;-69
2022/04/19 22:57:55;;;;;;;5.35;2.92;;;;;;;;;;10446880;28;20041;-69
2022/04/19 23:03:01;;;;;;;5.47;3.30;;;;;;;;;;10428503;28;20032;-69
2022/04/19 23:08:06;;;;;;;6.13;3.03;;;;;;;;;;10425769;28;20048;-69
2022/04/19 23:13:10;;;;;;;3.88;2.60;;;;;;;;;;10442676;28;20424;-68
2022/04/19 23:18:23;;;;;;;6.83;3.30;;;;;;;;;;10447717;28;20049;-67
2022/04/19 23:23:28;;;;;;;5.63;2.95;;;;;;;;;;10460527;28;20368;-69
2022/04/19 23:28:31;;;;;;;6.90;3.50;;;;;;;;;;10429236;28;20631;-69
2022/04/19 23:33:34;;;;;;;6.47;3.47;;;;;;;;;;10443488;28;20455;-69
2022/04/19 23:38:42;;;;;;;4.13;2.87;;;;;;;;;;10446692;28;20044;-68
2022/04/19 23:43:49;;;;;;;5.83;3.30;;;;;;;;;;10427237;28;20830;-69
2022/04/19 23:48:53;;;;;;;7.43;3.40;;;;;;;;;;10445981;28;20152;-68
2022/04/19 23:53:58;;;;;;;6.05;2.92;;;;;;;;;;10448597;28;20481;-67
2022/04/19 23:59:02;;;;;;;6.87;3.60;;;;;;;;;;10445479;28;20527;-68
